Trotwood, Ohio
Current Conditions -  °F | °C
As of 3:56 AM on Friday 26 Dec 2014 (Local Time) from KDAY Reporting Station
Clear Clear  
Wind Chill: 27°   Ceiling: Unl
Heat Index: 33°   Visibility: 10mi
Dew Point: 30°   Wind: 7mph
Humidity: 89%   Direction: 180°S
Pressure: 30.21"   Gusts: NA
Location:  39.8348°N, 84.2576°W
Report Text: KDAY 260856Z 18006KT 10SM CLR 01/M01 A3021 RMK AO2 SLP236 T00061011 53014
Loading
Personal Weather Stations






























Interactive Weather Map New forecast layout! Learn more

10-Day Weather Forecast

Advertisements
Track Severe Weather on mobile